createdAt,value
2018-12-31T00:01:50.966Z,7.97
2018-12-31T00:04:19.664Z,3.10
2018-12-31T00:06:48.378Z,4.93
2018-12-31T00:09:17.030Z,8.77
2018-12-31T00:11:46.300Z,8.90
2018-12-31T00:14:15.579Z,8.97
2018-12-31T00:16:44.983Z,5.70
2018-12-31T00:19:13.634Z,3.30
2018-12-31T00:21:42.403Z,8.30
2018-12-31T00:24:11.161Z,3.37
2018-12-31T00:26:39.894Z,7.00
2018-12-31T00:29:08.735Z,8.63
2018-12-31T00:31:39.516Z,3.40
2018-12-31T00:34:08.252Z,6.47
2018-12-31T00:36:37.653Z,8.73
2018-12-31T00:39:07.399Z,4.53
2018-12-31T00:41:36.151Z,6.00
2018-12-31T00:44:05.142Z,9.17
2018-12-31T00:46:34.085Z,2.87
2018-12-31T00:49:02.864Z,5.80
2018-12-31T00:51:31.871Z,6.33
2018-12-31T00:54:00.919Z,3.43
2018-12-31T00:56:30.255Z,9.23
2018-12-31T00:58:58.947Z,4.60
2018-12-31T01:01:28.063Z,6.13
2018-12-31T01:03:56.974Z,7.73
2018-12-31T01:06:25.947Z,0.87
2018-12-31T01:08:54.678Z,1.97
2018-12-31T01:11:23.334Z,11.73
2018-12-31T01:13:52.003Z,5.17
2018-12-31T01:16:20.692Z,11.03
2018-12-31T01:18:49.731Z,5.57
2018-12-31T01:21:18.764Z,20.20
2018-12-31T01:23:47.468Z,7.77
2018-12-31T01:26:16.332Z,2.50
2018-12-31T01:28:45.303Z,3.13
2018-12-31T01:31:14.185Z,3.30
2018-12-31T01:33:42.910Z,7.97
2018-12-31T01:36:12.067Z,12.10
2018-12-31T01:38:40.821Z,5.50
2018-12-31T01:41:10.062Z,5.07
2018-12-31T01:43:39.156Z,8.47
2018-12-31T01:46:07.994Z,5.33
2018-12-31T01:48:36.694Z,3.40
2018-12-31T01:51:11.325Z,4.50
2018-12-31T01:53:35.830Z,7.90
2018-12-31T01:56:04.512Z,6.10
2018-12-31T01:58:33.464Z,7.97
2018-12-31T02:01:02.163Z,8.00
2018-12-31T02:03:30.855Z,7.00
2018-12-31T02:05:59.823Z,4.30
2018-12-31T02:08:28.547Z,8.47
2018-12-31T02:10:57.803Z,5.23
2018-12-31T02:13:26.522Z,12.37
2018-12-31T02:15:55.571Z,8.13
2018-12-31T02:18:24.307Z,5.97
2018-12-31T02:20:53.347Z,15.80
2018-12-31T02:23:21.998Z,4.47
2018-12-31T02:25:50.680Z,13.43
2018-12-31T02:28:19.366Z,6.60
2018-12-31T02:30:48.703Z,4.50
2018-12-31T02:33:17.918Z,7.07
2018-12-31T02:35:46.882Z,8.97
2018-12-31T02:38:15.783Z,7.83
2018-12-31T02:40:44.731Z,9.00
2018-12-31T02:43:13.435Z,9.80
2018-12-31T02:45:42.084Z,9.23
2018-12-31T02:48:11.206Z,4.93
2018-12-31T02:50:39.894Z,6.47
2018-12-31T02:53:08.594Z,6.43
2018-12-31T02:55:37.623Z,9.07
2018-12-31T02:58:06.385Z,12.90
2018-12-31T03:00:35.124Z,8.67
2018-12-31T03:03:04.401Z,4.03
2018-12-31T03:05:33.037Z,5.30
2018-12-31T03:08:01.771Z,10.50
2018-12-31T03:10:30.503Z,11.53
2018-12-31T03:12:59.204Z,5.13
2018-12-31T03:15:27.880Z,9.30
2018-12-31T03:17:56.584Z,7.83
2018-12-31T03:20:25.624Z,7.47
2018-12-31T03:22:54.624Z,6.20
2018-12-31T03:25:24.064Z,2.90
2018-12-31T03:27:52.733Z,5.23
2018-12-31T03:30:21.847Z,14.07
2018-12-31T03:32:50.537Z,5.40
2018-12-31T03:35:19.224Z,10.67
2018-12-31T03:37:50.224Z,8.47
2018-12-31T03:40:18.954Z,6.43
2018-12-31T03:42:48.096Z,8.80
2018-12-31T03:45:16.976Z,15.77
2018-12-31T03:47:46.193Z,3.10
2018-12-31T03:50:15.329Z,9.10
2018-12-31T03:52:44.021Z,7.63
2018-12-31T03:55:12.733Z,10.97
2018-12-31T03:57:41.387Z,2.97
2018-12-31T04:00:10.081Z,15.33
2018-12-31T04:02:38.763Z,8.90
2018-12-31T04:05:07.536Z,4.17
2018-12-31T04:07:36.233Z,8.63
2018-12-31T04:10:05.196Z,8.23
2018-12-31T04:12:33.925Z,14.33
2018-12-31T04:15:02.859Z,10.33
2018-12-31T04:17:31.511Z,11.50
2018-12-31T04:20:00.187Z,6.97
2018-12-31T04:22:29.233Z,14.03
2018-12-31T04:24:57.870Z,13.33
2018-12-31T04:27:26.907Z,16.23
2018-12-31T04:29:55.575Z,7.10
2018-12-31T04:32:24.515Z,15.47
2018-12-31T04:34:53.601Z,13.77
2018-12-31T04:37:22.734Z,15.07
2018-12-31T04:39:51.527Z,11.00
2018-12-31T04:42:20.215Z,6.30
2018-12-31T04:44:49.173Z,8.87
2018-12-31T04:47:17.919Z,7.20
2018-12-31T04:49:58.905Z,8.53
2018-12-31T04:52:27.569Z,7.43
2018-12-31T04:54:56.255Z,14.07
2018-12-31T04:57:24.940Z,10.70
2018-12-31T04:59:53.611Z,4.67
2018-12-31T05:02:22.320Z,7.57
2018-12-31T05:04:51.284Z,10.40
2018-12-31T05:07:19.988Z,6.53
2018-12-31T05:09:48.679Z,14.47
2018-12-31T05:12:17.367Z,12.87
2018-12-31T05:14:46.030Z,3.40
2018-12-31T05:17:14.733Z,7.10
2018-12-31T05:19:43.768Z,8.40
2018-12-31T05:22:13.011Z,6.50
2018-12-31T05:24:41.703Z,5.60
2018-12-31T05:27:10.675Z,10.27
2018-12-31T05:29:39.406Z,7.33
2018-12-31T05:32:08.087Z,6.33
2018-12-31T05:34:36.765Z,10.90
2018-12-31T05:37:05.804Z,8.67
2018-12-31T05:39:34.436Z,12.80
2018-12-31T05:42:03.422Z,20.60
2018-12-31T05:44:32.476Z,6.60
2018-12-31T05:47:01.672Z,7.17
2018-12-31T05:49:30.680Z,13.00
2018-12-31T05:51:59.415Z,8.13
2018-12-31T05:54:28.097Z,11.63
2018-12-31T05:56:57.461Z,5.50
2018-12-31T05:59:26.433Z,11.33
2018-12-31T06:01:55.118Z,7.80
2018-12-31T06:04:23.988Z,5.40
2018-12-31T06:06:52.711Z,11.37
2018-12-31T06:09:21.856Z,12.87
2018-12-31T06:11:50.552Z,27.30
2018-12-31T06:14:19.476Z,19.00
2018-12-31T06:16:48.399Z,10.30
2018-12-31T06:19:17.465Z,6.30
2018-12-31T06:21:46.105Z,10.17
2018-12-31T06:24:15.148Z,7.27
2018-12-31T06:26:43.789Z,10.83
2018-12-31T06:29:12.766Z,9.30
2018-12-31T06:31:41.761Z,6.47
2018-12-31T06:34:10.475Z,7.33
2018-12-31T06:36:39.185Z,9.67
2018-12-31T06:39:08.527Z,12.20
2018-12-31T06:41:37.240Z,4.70
2018-12-31T06:44:06.219Z,9.43
2018-12-31T06:46:35.281Z,8.80
2018-12-31T06:49:03.939Z,6.07
2018-12-31T06:51:32.568Z,7.70
2018-12-31T06:54:01.305Z,14.70
2018-12-31T06:56:30.250Z,11.83
2018-12-31T06:58:59.328Z,9.20
2018-12-31T07:01:28.077Z,11.03
2018-12-31T07:03:56.759Z,11.10
2018-12-31T07:06:25.800Z,9.40
2018-12-31T07:08:55.190Z,20.97
2018-12-31T07:11:23.854Z,12.20
2018-12-31T07:13:52.990Z,12.77
2018-12-31T07:16:21.745Z,8.67
2018-12-31T07:18:50.415Z,8.50
2018-12-31T07:21:19.116Z,8.73
2018-12-31T07:23:48.364Z,9.27
2018-12-31T07:26:17.431Z,12.10
2018-12-31T07:28:46.091Z,13.47
2018-12-31T07:31:15.073Z,14.37
2018-12-31T07:33:44.318Z,9.27
2018-12-31T07:36:12.978Z,11.93
2018-12-31T07:38:41.988Z,8.00
2018-12-31T07:41:10.988Z,16.40
2018-12-31T07:43:39.671Z,10.00
2018-12-31T07:46:08.638Z,7.97
2018-12-31T07:48:37.708Z,12.87
2018-12-31T07:51:06.412Z,11.93
2018-12-31T07:53:35.130Z,13.97
2018-12-31T07:56:03.792Z,18.07
2018-12-31T07:58:32.467Z,13.23
2018-12-31T08:01:01.680Z,11.77
2018-12-31T08:03:30.359Z,9.33
2018-12-31T08:05:59.339Z,10.77
2018-12-31T08:08:28.308Z,11.20
2018-12-31T08:10:57.018Z,14.80
2018-12-31T08:13:26.004Z,16.00
2018-12-31T08:15:54.695Z,12.10
2018-12-31T08:18:23.740Z,12.37
2018-12-31T08:20:52.378Z,11.87
2018-12-31T08:23:21.308Z,15.40
2018-12-31T08:25:50.466Z,11.20
2018-12-31T08:28:19.405Z,9.53
2018-12-31T08:30:48.034Z,9.83
2018-12-31T08:33:17.007Z,12.77
2018-12-31T08:35:45.748Z,15.50
2018-12-31T08:38:14.747Z,13.13
2018-12-31T08:40:43.411Z,12.87
2018-12-31T08:43:12.117Z,15.03
2018-12-31T08:45:41.097Z,20.37
2018-12-31T08:48:09.814Z,13.80
2018-12-31T08:50:38.578Z,8.87
2018-12-31T08:53:07.216Z,17.17
2018-12-31T08:55:35.945Z,10.10
2018-12-31T08:58:04.638Z,15.33
2018-12-31T09:00:33.632Z,10.30
2018-12-31T09:03:02.340Z,13.20
2018-12-31T09:05:31.022Z,10.63
2018-12-31T09:08:00.047Z,14.43
2018-12-31T09:10:28.800Z,10.27
2018-12-31T09:12:57.471Z,16.77
2018-12-31T09:15:26.205Z,14.73
2018-12-31T09:17:55.292Z,13.80
2018-12-31T09:20:23.966Z,12.83
2018-12-31T09:22:52.663Z,9.13
2018-12-31T09:25:21.330Z,19.70
2018-12-31T09:27:49.993Z,13.83
2018-12-31T09:30:18.641Z,18.20
2018-12-31T09:32:47.416Z,15.97
2018-12-31T09:35:16.609Z,8.27
2018-12-31T09:37:45.815Z,4.70
2018-12-31T09:40:14.482Z,10.73
2018-12-31T09:42:43.145Z,13.70
2018-12-31T09:45:11.848Z,10.57
2018-12-31T09:47:40.553Z,13.93
2018-12-31T09:50:09.231Z,7.17
2018-12-31T09:52:37.936Z,7.97
2018-12-31T09:55:06.683Z,10.00
2018-12-31T09:57:36.392Z,14.87
2018-12-31T10:00:05.867Z,7.53
2018-12-31T10:02:34.589Z,11.87
2018-12-31T10:05:03.282Z,13.43
2018-12-31T10:07:32.034Z,13.07
2018-12-31T10:10:00.785Z,10.73
2018-12-31T10:12:29.991Z,9.53
2018-12-31T10:14:58.636Z,13.73
2018-12-31T10:17:27.389Z,8.70
2018-12-31T10:19:56.331Z,10.37
2018-12-31T10:22:25.128Z,12.87
2018-12-31T10:24:53.834Z,12.40
2018-12-31T10:27:23.508Z,11.40
2018-12-31T10:29:52.452Z,15.37
2018-12-31T10:32:21.198Z,9.00
2018-12-31T10:34:50.000Z,11.23
2018-12-31T10:37:18.952Z,12.60
2018-12-31T10:39:47.704Z,11.23
2018-12-31T10:42:16.917Z,15.90
2018-12-31T10:44:45.707Z,6.90
2018-12-31T10:47:14.436Z,14.30
2018-12-31T10:49:43.410Z,15.80
2018-12-31T10:52:12.123Z,11.87
2018-12-31T10:54:40.803Z,7.17
2018-12-31T10:57:10.343Z,12.70
2018-12-31T10:59:39.027Z,13.30
2018-12-31T11:02:07.739Z,18.20
2018-12-31T11:04:36.468Z,11.00
2018-12-31T11:07:05.168Z,11.20
2018-12-31T11:09:34.097Z,5.73
2018-12-31T11:12:03.175Z,8.00
2018-12-31T11:14:31.940Z,8.50
2018-12-31T11:17:00.612Z,8.70
2018-12-31T11:19:29.640Z,7.93
2018-12-31T11:21:58.432Z,8.93
2018-12-31T11:24:27.318Z,15.43
2018-12-31T11:26:55.970Z,11.97
2018-12-31T11:29:24.663Z,8.37
2018-12-31T11:31:53.687Z,9.57
2018-12-31T11:34:30.783Z,7.20
2018-12-31T11:37:00.473Z,12.17
2018-12-31T11:39:30.394Z,7.13
2018-12-31T11:41:59.120Z,6.43
2018-12-31T11:44:28.863Z,13.90
2018-12-31T11:46:57.530Z,8.77
2018-12-31T11:49:26.787Z,9.87
2018-12-31T11:51:55.685Z,9.17
2018-12-31T11:54:24.331Z,9.13
2018-12-31T11:59:29.443Z,6.10
2018-12-31T12:01:58.461Z,9.83
2018-12-31T12:04:27.231Z,12.07
2018-12-31T12:06:56.299Z,6.13
2018-12-31T12:09:25.958Z,11.17
2018-12-31T12:11:54.935Z,13.10
2018-12-31T12:14:23.667Z,9.57
2018-12-31T12:16:53.019Z,15.50
2018-12-31T12:19:21.807Z,10.13
2018-12-31T12:21:50.538Z,5.87
2018-12-31T12:24:19.241Z,5.47
2018-12-31T12:26:48.267Z,13.63
2018-12-31T12:29:17.448Z,8.03
2018-12-31T12:31:46.340Z,9.87
2018-12-31T12:34:15.335Z,7.67
2018-12-31T12:36:43.969Z,8.83
2018-12-31T12:39:12.695Z,9.40
2018-12-31T12:41:41.771Z,12.50
2018-12-31T12:44:11.025Z,10.23
2018-12-31T12:46:40.218Z,10.57
2018-12-31T12:49:09.405Z,7.80
2018-12-31T12:51:38.498Z,5.93
2018-12-31T12:54:07.519Z,6.30
2018-12-31T12:56:36.547Z,13.87
2018-12-31T12:59:05.617Z,7.60
2018-12-31T13:01:35.416Z,6.10
2018-12-31T13:04:04.416Z,15.10
2018-12-31T13:06:34.130Z,5.20
2018-12-31T13:09:22.656Z,9.70
2018-12-31T13:11:51.479Z,8.07
2018-12-31T13:14:20.295Z,8.90
2018-12-31T13:16:49.324Z,8.93
2018-12-31T13:19:18.259Z,8.63
2018-12-31T13:21:47.345Z,11.67
2018-12-31T13:24:16.677Z,8.47
2018-12-31T13:26:46.505Z,6.43
2018-12-31T13:29:15.264Z,10.00
2018-12-31T13:31:43.964Z,5.33
2018-12-31T13:34:12.731Z,6.13
2018-12-31T13:36:41.439Z,9.83
2018-12-31T13:39:10.126Z,10.00
2018-12-31T13:41:38.931Z,5.77
2018-12-31T13:44:07.940Z,9.93
2018-12-31T13:46:36.682Z,10.73
2018-12-31T13:49:05.376Z,6.07
2018-12-31T13:51:34.648Z,5.30
2018-12-31T13:54:03.950Z,10.43
2018-12-31T13:56:32.970Z,10.97
2018-12-31T13:59:02.014Z,10.17
2018-12-31T14:01:30.665Z,11.27
2018-12-31T14:03:59.548Z,7.23
2018-12-31T14:06:28.520Z,5.10
2018-12-31T14:08:57.629Z,8.67
2018-12-31T14:11:26.313Z,6.43
2018-12-31T14:13:55.183Z,7.73
2018-12-31T14:16:24.868Z,7.57
2018-12-31T14:18:53.856Z,6.70
2018-12-31T14:21:22.555Z,6.17
2018-12-31T14:23:51.346Z,8.13
2018-12-31T14:26:20.101Z,9.50
2018-12-31T14:28:49.530Z,11.50
2018-12-31T14:31:18.574Z,5.30
2018-12-31T14:33:47.283Z,10.30
2018-12-31T14:36:16.026Z,6.67
2018-12-31T14:38:44.815Z,5.77
2018-12-31T14:41:14.494Z,7.10
2018-12-31T14:43:43.203Z,4.10
2018-12-31T14:46:12.016Z,7.10
2018-12-31T14:48:40.824Z,9.37
2018-12-31T14:51:09.883Z,5.17
2018-12-31T14:53:38.943Z,7.37
2018-12-31T14:56:07.685Z,8.77
2018-12-31T14:58:36.390Z,6.53
2018-12-31T15:01:05.161Z,6.47
2018-12-31T15:03:33.979Z,8.23
2018-12-31T15:06:03.157Z,5.00
2018-12-31T15:08:31.974Z,4.60
2018-12-31T15:11:00.678Z,6.23
2018-12-31T15:13:30.080Z,4.97
2018-12-31T15:15:58.746Z,6.97
2018-12-31T15:18:27.934Z,4.73
2018-12-31T15:20:56.680Z,7.53
2018-12-31T15:23:26.371Z,6.17
2018-12-31T15:25:55.100Z,10.97
2018-12-31T15:28:24.011Z,12.07
2018-12-31T15:30:53.117Z,12.70
2018-12-31T15:33:21.977Z,10.20
2018-12-31T15:35:50.643Z,12.27
2018-12-31T15:38:19.397Z,10.70
2018-12-31T15:40:48.128Z,11.87
2018-12-31T15:43:17.457Z,8.23
2018-12-31T15:45:46.443Z,12.90
2018-12-31T15:48:15.531Z,16.37
2018-12-31T15:50:44.250Z,12.57
2018-12-31T15:53:13.172Z,14.73
2018-12-31T15:55:42.066Z,13.97
2018-12-31T15:58:11.070Z,7.07
2018-12-31T16:00:39.936Z,20.20
2018-12-31T16:03:08.787Z,12.57
2018-12-31T16:05:37.830Z,15.50
2018-12-31T16:08:06.718Z,136.03
2018-12-31T16:10:35.363Z,33.50
2018-12-31T16:13:04.435Z,25.17
2018-12-31T16:15:33.169Z,17.93
2018-12-31T16:18:01.926Z,57.67
2018-12-31T16:20:31.285Z,31.27
2018-12-31T16:23:00.271Z,21.10
2018-12-31T16:25:29.042Z,21.13
2018-12-31T16:27:58.059Z,28.67
2018-12-31T16:30:27.274Z,16.73
2018-12-31T16:32:56.007Z,31.13
2018-12-31T16:35:25.285Z,22.17
2018-12-31T16:37:54.012Z,22.53
2018-12-31T16:40:22.697Z,19.33
2018-12-31T16:42:51.374Z,28.40
2018-12-31T16:45:20.403Z,31.20
2018-12-31T16:47:49.161Z,29.97
2018-12-31T16:50:17.840Z,27.30
2018-12-31T16:52:46.563Z,28.83
2018-12-31T16:55:15.561Z,32.93
2018-12-31T16:57:44.242Z,25.23
2018-12-31T17:00:13.268Z,35.63
2018-12-31T17:02:41.988Z,49.80
2018-12-31T17:05:10.684Z,31.23
2018-12-31T17:07:39.382Z,40.47
2018-12-31T17:10:09.816Z,33.13
2018-12-31T17:12:39.221Z,32.77
2018-12-31T17:15:07.967Z,37.83
2018-12-31T17:17:36.691Z,34.73
2018-12-31T17:20:06.229Z,40.17
2018-12-31T17:22:34.998Z,56.77
2018-12-31T17:25:03.952Z,45.30
2018-12-31T17:27:33.405Z,53.73
2018-12-31T17:30:02.183Z,44.60
2018-12-31T17:32:30.870Z,48.93
2018-12-31T17:34:59.799Z,54.70
2018-12-31T17:37:28.864Z,53.07
2018-12-31T17:39:57.621Z,53.00
2018-12-31T17:42:26.673Z,47.23
2018-12-31T17:44:55.415Z,42.10
2018-12-31T17:47:25.266Z,43.60
2018-12-31T17:49:54.419Z,42.97
2018-12-31T17:52:23.113Z,51.37
2018-12-31T17:54:51.785Z,46.67
2018-12-31T17:57:20.481Z,36.87
2018-12-31T17:59:49.707Z,44.80
2018-12-31T18:02:18.451Z,91.97
2018-12-31T18:04:53.058Z,42.83
2018-12-31T18:07:22.216Z,39.77
2018-12-31T18:09:50.876Z,43.57
2018-12-31T18:12:19.511Z,41.70
2018-12-31T18:14:48.491Z,46.23
2018-12-31T18:17:17.248Z,55.27
2018-12-31T18:19:45.910Z,75.67
2018-12-31T18:22:14.626Z,204.13
2018-12-31T18:24:43.583Z,80.83
2018-12-31T18:27:12.316Z,81.73
2018-12-31T18:29:41.321Z,148.03
2018-12-31T18:32:10.112Z,103.00
2018-12-31T18:34:38.880Z,58.37
2018-12-31T18:37:07.539Z,68.63
2018-12-31T18:39:36.230Z,57.47
2018-12-31T18:42:04.899Z,55.10
2018-12-31T18:44:33.612Z,55.63
2018-12-31T18:47:02.639Z,56.63
2018-12-31T18:49:31.408Z,58.67
2018-12-31T18:52:00.080Z,57.83
2018-12-31T18:54:28.985Z,60.27
2018-12-31T18:56:57.675Z,52.97
2018-12-31T18:59:26.340Z,54.90
2018-12-31T19:01:55.308Z,64.73
2018-12-31T19:04:24.031Z,61.17
2018-12-31T19:06:53.094Z,55.17
2018-12-31T19:09:21.818Z,69.03
2018-12-31T19:11:50.591Z,71.00
2018-12-31T19:14:19.295Z,70.23
2018-12-31T19:16:48.247Z,55.73
2018-12-31T19:19:17.478Z,78.33
2018-12-31T19:21:47.474Z,70.10
2018-12-31T19:24:16.552Z,65.33
2018-12-31T19:26:45.837Z,58.90
2018-12-31T19:29:14.576Z,68.77
2018-12-31T19:31:44.306Z,61.23
2018-12-31T19:34:13.180Z,69.70
2018-12-31T19:36:42.448Z,64.43
2018-12-31T19:39:11.196Z,52.20
2018-12-31T19:41:40.338Z,51.40
2018-12-31T19:44:09.040Z,46.47
2018-12-31T19:46:37.684Z,38.77
2018-12-31T19:49:06.812Z,41.23
2018-12-31T19:51:35.823Z,42.13
2018-12-31T19:54:04.755Z,51.97
2018-12-31T19:56:33.502Z,53.90
2018-12-31T19:59:02.741Z,62.03
2018-12-31T20:01:31.514Z,67.00
2018-12-31T20:04:00.179Z,102.73
2018-12-31T20:06:29.158Z,68.93
2018-12-31T20:08:58.210Z,66.13
2018-12-31T20:11:26.960Z,61.17
2018-12-31T20:13:55.910Z,53.17
2018-12-31T20:16:24.652Z,50.20
2018-12-31T20:18:53.319Z,80.47
2018-12-31T20:21:22.408Z,65.20
2018-12-31T20:23:51.599Z,75.53
2018-12-31T20:26:20.563Z,85.43
2018-12-31T20:28:49.519Z,75.73
2018-12-31T20:31:18.294Z,74.13
2018-12-31T20:33:47.428Z,82.23
2018-12-31T20:36:16.585Z,73.23
2018-12-31T20:38:47.033Z,81.80
2018-12-31T20:41:15.903Z,103.17
2018-12-31T20:43:44.942Z,103.00
2018-12-31T20:46:13.692Z,102.03
2018-12-31T20:48:42.923Z,119.67
2018-12-31T20:51:12.361Z,93.43
2018-12-31T20:53:41.089Z,135.90
2018-12-31T20:56:10.092Z,105.70
2018-12-31T20:58:38.764Z,190.67
2018-12-31T21:01:07.463Z,137.80
2018-12-31T21:03:55.655Z,105.97
2018-12-31T21:06:24.732Z,110.43
2018-12-31T21:08:54.120Z,138.30
2018-12-31T21:11:23.128Z,83.33
2018-12-31T21:13:52.176Z,104.03
2018-12-31T21:16:20.850Z,123.20
2018-12-31T21:18:49.832Z,105.53
2018-12-31T21:21:19.090Z,88.57
2018-12-31T21:23:48.072Z,325.60
2018-12-31T21:26:17.185Z,189.33
2018-12-31T21:28:46.134Z,175.37
2018-12-31T21:31:14.824Z,143.30
2018-12-31T21:33:44.090Z,79.00
2018-12-31T21:36:12.830Z,111.77
2018-12-31T21:38:41.514Z,105.37
2018-12-31T21:41:13.082Z,79.83
2018-12-31T21:43:42.295Z,99.13
2018-12-31T21:46:11.440Z,103.73
2018-12-31T21:48:40.457Z,98.33
2018-12-31T21:51:09.477Z,61.60
2018-12-31T21:53:38.123Z,73.43
2018-12-31T21:57:28.087Z,65.40
2018-12-31T21:59:57.538Z,74.37
2018-12-31T22:02:26.385Z,88.90
2018-12-31T22:04:55.423Z,100.47
2018-12-31T22:07:24.107Z,66.07
2018-12-31T22:09:52.800Z,73.03
2018-12-31T22:12:21.492Z,48.33
2018-12-31T22:14:50.499Z,92.13
2018-12-31T22:17:19.644Z,82.13
2018-12-31T22:19:48.697Z,118.73
2018-12-31T22:22:17.450Z,64.63
2018-12-31T22:24:46.149Z,59.50
2018-12-31T22:27:14.843Z,53.80
2018-12-31T22:29:43.517Z,55.00
2018-12-31T22:32:12.202Z,53.33
2018-12-31T22:34:40.984Z,44.40
2018-12-31T22:37:09.672Z,41.50
2018-12-31T22:39:38.359Z,39.80
2018-12-31T22:42:07.043Z,48.17
2018-12-31T22:44:36.342Z,43.20
2018-12-31T22:47:05.035Z,45.57
2018-12-31T22:49:33.711Z,48.47
2018-12-31T22:52:02.632Z,43.40
2018-12-31T22:54:31.579Z,41.87
2018-12-31T22:57:00.934Z,38.93
2018-12-31T22:59:29.594Z,41.43
2018-12-31T23:01:58.298Z,46.23
2018-12-31T23:04:27.040Z,60.47
2018-12-31T23:06:59.457Z,72.67
2018-12-31T23:09:28.114Z,148.20
2018-12-31T23:11:57.465Z,198.93
2018-12-31T23:14:26.440Z,273.87
2018-12-31T23:17:15.724Z,342.67
2018-12-31T23:19:44.708Z,440.70
2018-12-31T23:22:14.131Z,426.73
2018-12-31T23:24:43.550Z,452.43
2018-12-31T23:27:12.352Z,391.13
2018-12-31T23:29:41.156Z,481.50
2018-12-31T23:32:09.933Z,434.97
2018-12-31T23:34:38.902Z,336.23
2018-12-31T23:37:07.671Z,370.33
2018-12-31T23:39:36.336Z,292.67
2018-12-31T23:42:05.055Z,280.33
2018-12-31T23:44:34.002Z,267.83
2018-12-31T23:47:02.802Z,258.37
2018-12-31T23:49:31.833Z,260.13
2018-12-31T23:52:00.598Z,199.43
2018-12-31T23:54:29.608Z,207.93
2018-12-31T23:56:58.556Z,183.13
2018-12-31T23:59:27.546Z,171.70
